createdAt,value
2023-02-16T00:00:22.834Z,40.04
2023-02-16T00:00:55.079Z,40.12
2023-02-16T00:01:32.479Z,40.04
2023-02-16T00:02:04.768Z,40.21
2023-02-16T00:02:37.084Z,40.00
2023-02-16T00:03:11.707Z,40.35
2023-02-16T00:03:46.976Z,40.25
2023-02-16T00:04:21.572Z,40.05
2023-02-16T00:04:53.912Z,40.47
2023-02-16T00:05:30.944Z,40.10
2023-02-16T00:06:03.189Z,40.11
2023-02-16T00:06:38.230Z,40.16
2023-02-16T00:07:10.456Z,40.04
2023-02-16T00:07:42.680Z,40.18
2023-02-16T00:08:15.244Z,40.40
2023-02-16T00:08:51.780Z,40.00
2023-02-16T00:09:24.751Z,40.11
2023-02-16T00:09:56.996Z,40.19
2023-02-16T00:10:35.207Z,40.15
2023-02-16T00:11:29.203Z,40.16
2023-02-16T00:12:21.249Z,40.32
2023-02-16T00:13:08.719Z,40.16
2023-02-16T00:13:48.172Z,40.57
2023-02-16T00:14:22.821Z,40.47
2023-02-16T00:14:57.669Z,40.13
2023-02-16T00:15:30.197Z,40.03
2023-02-16T00:16:02.496Z,40.40
2023-02-16T00:16:37.622Z,40.09
2023-02-16T00:17:11.845Z,40.21
2023-02-16T00:17:44.077Z,40.18
2023-02-16T00:18:21.907Z,40.11
2023-02-16T00:18:54.329Z,40.46
2023-02-16T00:19:31.267Z,40.12
2023-02-16T00:20:06.796Z,40.20
2023-02-16T00:20:39.052Z,40.25
2023-02-16T00:21:11.520Z,40.39
2023-02-16T00:21:46.436Z,40.45
2023-02-16T00:22:18.649Z,40.46
2023-02-16T00:22:50.900Z,40.47
2023-02-16T00:23:23.115Z,40.20
2023-02-16T00:23:57.963Z,40.25
2023-02-16T00:24:31.293Z,40.31
2023-02-16T00:25:03.602Z,40.01
2023-02-16T00:25:38.973Z,40.10
2023-02-16T00:26:15.228Z,40.13
2023-02-16T00:26:51.610Z,40.48
2023-02-16T00:27:26.518Z,40.38
2023-02-16T00:27:58.757Z,40.35
2023-02-16T00:28:33.677Z,40.03
2023-02-16T00:29:05.939Z,40.47
2023-02-16T00:29:38.195Z,40.22
2023-02-16T00:30:18.613Z,40.22
2023-02-16T00:30:54.530Z,40.47
2023-02-16T00:31:31.040Z,40.27
2023-02-16T00:32:05.240Z,40.25
2023-02-16T00:32:37.545Z,40.49
2023-02-16T00:33:17.381Z,40.14
2023-02-16T00:33:50.231Z,40.13
2023-02-16T00:34:30.870Z,40.27
2023-02-16T00:35:03.142Z,40.20
2023-02-16T00:35:35.439Z,40.36
2023-02-16T00:36:11.017Z,40.25
2023-02-16T00:36:43.258Z,40.19
2023-02-16T00:37:18.092Z,40.04
2023-02-16T00:37:50.355Z,40.42
2023-02-16T00:38:22.632Z,40.00
2023-02-16T00:38:57.485Z,40.30
2023-02-16T00:39:30.291Z,40.41
2023-02-16T00:40:02.560Z,40.13
2023-02-16T00:40:35.001Z,40.40
2023-02-16T00:41:32.978Z,40.40
2023-02-16T00:42:06.821Z,39.96
2023-02-16T00:42:43.236Z,40.04
2023-02-16T00:43:27.930Z,40.30
2023-02-16T00:44:00.183Z,40.04
2023-02-16T00:44:34.878Z,40.29
2023-02-16T00:45:20.125Z,40.22
2023-02-16T00:45:52.567Z,40.22
2023-02-16T00:46:24.987Z,40.16
2023-02-16T00:47:00.051Z,40.30
2023-02-16T00:47:37.469Z,39.94
2023-02-16T00:48:09.758Z,40.28
2023-02-16T00:48:45.375Z,40.21
2023-02-16T00:49:19.300Z,40.10
2023-02-16T00:49:54.916Z,40.17
2023-02-16T00:50:31.736Z,40.21
2023-02-16T00:51:13.772Z,39.79
2023-02-16T00:51:55.541Z,40.00
2023-02-16T00:52:33.860Z,39.94
2023-02-16T00:53:06.327Z,39.87
2023-02-16T00:53:41.176Z,40.14
2023-02-16T00:54:13.587Z,39.96
2023-02-16T00:54:45.825Z,39.86
2023-02-16T00:55:22.492Z,40.16
2023-02-16T00:55:55.301Z,40.25
2023-02-16T00:56:27.641Z,40.09
2023-02-16T00:57:02.486Z,39.67
2023-02-16T00:57:36.854Z,39.94
2023-02-16T00:58:15.256Z,40.17
2023-02-16T00:58:51.041Z,39.90
2023-02-16T00:59:23.880Z,40.19
2023-02-16T00:59:59.332Z,40.06
2023-02-16T01:00:37.596Z,39.85
2023-02-16T01:01:13.370Z,39.75
2023-02-16T01:01:45.802Z,40.10
2023-02-16T01:02:21.163Z,40.21
2023-02-16T01:02:59.105Z,39.77
2023-02-16T01:03:31.500Z,39.86
2023-02-16T01:04:09.638Z,39.81
2023-02-16T01:04:42.092Z,40.15
2023-02-16T01:05:14.516Z,39.75
2023-02-16T01:05:50.025Z,39.83
2023-02-16T01:06:37.269Z,40.07
2023-02-16T01:07:27.027Z,40.14
2023-02-16T01:08:14.276Z,40.25
2023-02-16T01:09:06.936Z,40.25
2023-02-16T01:09:54.180Z,40.10
2023-02-16T01:10:42.200Z,39.87
2023-02-16T01:11:17.474Z,39.96
2023-02-16T01:11:49.718Z,40.23
2023-02-16T01:12:22.282Z,40.19
2023-02-16T01:12:57.132Z,40.23
2023-02-16T01:13:34.216Z,40.07
2023-02-16T01:14:11.803Z,40.27
2023-02-16T01:14:49.147Z,40.13
2023-02-16T01:15:23.401Z,39.93
2023-02-16T01:15:57.220Z,40.32
2023-02-16T01:16:37.282Z,39.94
2023-02-16T01:17:13.289Z,40.27
2023-02-16T01:17:45.516Z,39.91
2023-02-16T01:18:18.776Z,39.89
2023-02-16T01:18:54.262Z,40.08
2023-02-16T01:19:26.720Z,40.28
2023-02-16T01:19:58.992Z,40.13
2023-02-16T01:20:35.429Z,39.92
2023-02-16T01:21:07.709Z,40.26
2023-02-16T01:21:40.192Z,39.86
2023-02-16T01:22:12.517Z,39.84
2023-02-16T01:22:47.528Z,39.94
2023-02-16T01:23:19.861Z,39.80
2023-02-16T01:23:52.088Z,40.08
2023-02-16T01:24:27.515Z,39.96
2023-02-16T01:24:59.745Z,40.20
2023-02-16T01:25:32.070Z,40.04
2023-02-16T01:26:04.963Z,40.11
2023-02-16T01:26:42.276Z,40.25
2023-02-16T01:27:14.594Z,39.91
2023-02-16T01:27:50.510Z,40.08
2023-02-16T01:28:27.115Z,39.82
2023-02-16T01:29:02.186Z,40.04
2023-02-16T01:29:34.477Z,39.83
2023-02-16T01:30:13.990Z,39.83
2023-02-16T01:30:46.411Z,39.97
2023-02-16T01:31:19.091Z,40.23
2023-02-16T01:31:54.087Z,40.07
2023-02-16T01:32:26.431Z,39.81
2023-02-16T01:32:58.704Z,39.96
2023-02-16T01:33:33.661Z,39.77
2023-02-16T01:34:06.009Z,39.94
2023-02-16T01:34:38.930Z,40.10
2023-02-16T01:35:14.547Z,39.89
2023-02-16T01:35:47.040Z,40.12
2023-02-16T01:36:23.695Z,39.94
2023-02-16T01:36:58.564Z,40.14
2023-02-16T01:37:30.905Z,39.90
2023-02-16T01:38:03.707Z,39.81
2023-02-16T01:38:38.648Z,39.78
2023-02-16T01:39:12.553Z,40.04
2023-02-16T01:39:45.100Z,39.84
2023-02-16T01:40:41.382Z,40.10
2023-02-16T01:41:22.738Z,40.20
2023-02-16T01:42:02.628Z,40.15
2023-02-16T01:42:40.201Z,39.96
2023-02-16T01:43:18.868Z,39.79
2023-02-16T01:43:53.308Z,39.82
2023-02-16T01:44:32.928Z,39.97
2023-02-16T01:45:09.943Z,40.15
2023-02-16T01:45:43.807Z,40.16
2023-02-16T01:46:22.416Z,39.79
2023-02-16T01:46:59.489Z,39.95
2023-02-16T01:47:38.183Z,40.18
2023-02-16T01:48:22.068Z,40.03
2023-02-16T01:48:54.391Z,39.76
2023-02-16T01:49:27.719Z,39.89
2023-02-16T01:50:04.234Z,40.03
2023-02-16T01:50:43.524Z,39.95
2023-02-16T01:51:22.624Z,40.17
2023-02-16T01:52:00.630Z,40.22
2023-02-16T01:52:35.284Z,39.84
2023-02-16T01:53:14.765Z,39.81
2023-02-16T01:53:53.104Z,40.13
2023-02-16T01:54:36.679Z,39.77
2023-02-16T01:55:15.850Z,39.89
2023-02-16T01:55:52.872Z,40.14
2023-02-16T01:56:30.978Z,40.07
2023-02-16T01:57:09.293Z,39.99
2023-02-16T01:57:46.964Z,40.18
2023-02-16T01:58:26.216Z,39.79
2023-02-16T01:59:05.027Z,39.83
2023-02-16T02:00:04.804Z,39.85
2023-02-16T02:01:18.433Z,39.75
2023-02-16T02:01:53.706Z,39.82
2023-02-16T02:02:26.986Z,40.01
2023-02-16T02:03:16.388Z,39.97
2023-02-16T02:04:03.680Z,39.75
2023-02-16T02:04:54.224Z,39.71
2023-02-16T02:05:40.623Z,40.06
2023-02-16T02:06:14.993Z,39.63
2023-02-16T02:06:47.641Z,40.06
2023-02-16T02:07:26.097Z,39.72
2023-02-16T02:08:03.772Z,39.75
2023-02-16T02:08:40.707Z,39.68
2023-02-16T02:09:18.885Z,40.13
2023-02-16T02:10:00.739Z,39.79
2023-02-16T02:10:40.041Z,39.92
2023-02-16T02:11:19.981Z,39.84
2023-02-16T02:12:06.443Z,39.83
2023-02-16T02:12:45.424Z,39.82
2023-02-16T02:13:24.713Z,39.82
2023-02-16T02:14:01.399Z,40.21
2023-02-16T02:14:38.016Z,39.87
2023-02-16T02:15:16.660Z,39.69
2023-02-16T02:15:49.942Z,39.76
2023-02-16T02:16:24.340Z,40.16
2023-02-16T02:17:01.424Z,39.84
2023-02-16T02:17:37.457Z,40.09
2023-02-16T02:18:12.900Z,40.08
2023-02-16T02:18:45.188Z,39.73
2023-02-16T02:19:17.658Z,40.08
2023-02-16T02:20:00.399Z,40.13
2023-02-16T02:21:01.704Z,39.94
2023-02-16T02:22:09.654Z,40.03
2023-02-16T02:23:32.370Z,40.01
2023-02-16T02:24:31.390Z,40.18
2023-02-16T02:25:25.717Z,39.74
2023-02-16T02:26:43.170Z,39.92
2023-02-16T02:27:24.095Z,40.16
2023-02-16T02:28:01.274Z,40.06
2023-02-16T02:28:37.657Z,39.84
2023-02-16T02:29:28.560Z,39.76
2023-02-16T02:30:20.281Z,40.22
2023-02-16T02:30:58.385Z,40.16
2023-02-16T02:31:41.923Z,40.18
2023-02-16T02:32:21.134Z,40.05
2023-02-16T02:33:06.751Z,39.79
2023-02-16T02:33:48.982Z,39.87
2023-02-16T02:34:25.537Z,39.79
2023-02-16T02:35:21.750Z,39.71
2023-02-16T02:36:01.165Z,40.04
2023-02-16T02:36:37.667Z,39.90
2023-02-16T02:37:14.696Z,40.22
2023-02-16T02:37:53.375Z,40.00
2023-02-16T02:38:35.152Z,39.91
2023-02-16T02:39:18.590Z,39.96
2023-02-16T02:39:57.552Z,39.93
2023-02-16T02:40:41.438Z,39.82
2023-02-16T02:41:20.192Z,40.06
2023-02-16T02:42:05.301Z,39.76
2023-02-16T02:42:55.588Z,39.92
2023-02-16T02:43:32.262Z,39.79
2023-02-16T02:44:05.920Z,40.02
2023-02-16T02:44:47.654Z,39.77
2023-02-16T02:45:23.987Z,39.97
2023-02-16T02:46:00.610Z,40.03
2023-02-16T02:46:35.404Z,40.16
2023-02-16T02:47:09.040Z,40.09
2023-02-16T02:47:45.345Z,39.89
2023-02-16T02:48:18.778Z,39.87
2023-02-16T02:48:51.429Z,40.00
2023-02-16T02:49:26.424Z,39.78
2023-02-16T02:49:58.668Z,40.11
2023-02-16T02:51:05.052Z,39.93
2023-02-16T02:51:41.144Z,40.13
2023-02-16T02:52:16.231Z,40.14
2023-02-16T02:52:48.602Z,40.13
2023-02-16T02:53:21.884Z,39.75
2023-02-16T02:54:11.550Z,39.94
2023-02-16T02:54:59.802Z,40.16
2023-02-16T02:55:47.600Z,39.94
2023-02-16T02:56:40.435Z,39.89
2023-02-16T02:57:31.767Z,40.06
2023-02-16T02:58:22.189Z,39.80
2023-02-16T02:59:12.414Z,40.11
2023-02-16T03:00:03.060Z,40.06
2023-02-16T03:00:47.934Z,39.93
2023-02-16T03:01:21.154Z,40.21
2023-02-16T03:01:57.674Z,40.11
2023-02-16T03:02:34.350Z,39.99
2023-02-16T03:03:09.455Z,40.01
2023-02-16T03:03:45.789Z,40.22
2023-02-16T03:04:23.727Z,39.91
2023-02-16T03:04:56.595Z,40.18
2023-02-16T03:05:30.039Z,40.20
2023-02-16T03:06:06.753Z,40.19
2023-02-16T03:06:41.115Z,39.91
2023-02-16T03:07:13.735Z,40.08
2023-02-16T03:07:47.193Z,39.74
2023-02-16T03:08:24.519Z,39.96
2023-02-16T03:09:01.312Z,39.98
2023-02-16T03:09:33.620Z,39.86
2023-02-16T03:10:21.907Z,39.73
2023-02-16T03:11:17.460Z,39.85
2023-02-16T03:12:05.812Z,39.62
2023-02-16T03:12:49.502Z,39.94
2023-02-16T03:13:26.345Z,39.82
2023-02-16T03:13:59.943Z,40.04
2023-02-16T03:14:37.049Z,40.06
2023-02-16T03:15:09.834Z,40.06
2023-02-16T03:15:43.130Z,39.99
2023-02-16T03:16:21.774Z,39.66
2023-02-16T03:17:10.826Z,40.10
2023-02-16T03:17:58.157Z,39.98
2023-02-16T03:18:46.206Z,40.06
2023-02-16T03:19:34.389Z,39.95
2023-02-16T03:20:24.540Z,39.62
2023-02-16T03:21:12.324Z,39.63
2023-02-16T03:21:59.728Z,39.72
2023-02-16T03:22:47.856Z,39.73
2023-02-16T03:23:35.103Z,39.96
2023-02-16T03:24:24.836Z,39.63
2023-02-16T03:25:12.061Z,39.99
2023-02-16T03:25:59.561Z,39.83
2023-02-16T03:26:47.787Z,39.90
2023-02-16T03:27:38.027Z,39.60
2023-02-16T03:28:26.209Z,40.10
2023-02-16T03:29:22.598Z,39.63
2023-02-16T03:29:55.785Z,39.65
2023-02-16T03:30:31.120Z,39.96
2023-02-16T03:31:04.391Z,39.78
2023-02-16T03:31:39.096Z,39.72
2023-02-16T03:32:14.117Z,40.02
2023-02-16T03:32:47.017Z,39.84
2023-02-16T03:33:19.596Z,40.06
2023-02-16T03:33:55.004Z,39.72
2023-02-16T03:34:31.265Z,39.83
2023-02-16T03:35:03.707Z,39.69
2023-02-16T03:35:36.386Z,39.90
2023-02-16T03:36:09.059Z,40.05
2023-02-16T03:36:46.713Z,39.99
2023-02-16T03:37:19.062Z,39.85
2023-02-16T03:37:51.369Z,39.94
2023-02-16T03:38:26.279Z,39.60
2023-02-16T03:38:59.032Z,39.98
2023-02-16T03:39:31.927Z,39.66
2023-02-16T03:40:21.576Z,39.80
2023-02-16T03:40:57.847Z,39.66
2023-02-16T03:41:32.967Z,39.79
2023-02-16T03:42:05.577Z,39.97
2023-02-16T03:42:40.458Z,39.70
2023-02-16T03:43:12.720Z,40.03
2023-02-16T03:43:44.974Z,40.05
2023-02-16T03:44:22.511Z,39.91
2023-02-16T03:44:54.768Z,39.70
2023-02-16T03:45:27.117Z,39.75
2023-02-16T03:46:02.093Z,39.64
2023-02-16T03:46:34.684Z,39.94
2023-02-16T03:47:11.036Z,40.03
2023-02-16T03:47:45.911Z,39.92
2023-02-16T03:48:18.450Z,39.63
2023-02-16T03:48:50.695Z,39.75
2023-02-16T03:49:25.556Z,39.58
2023-02-16T03:49:57.788Z,40.02
2023-02-16T03:50:30.368Z,39.91
2023-02-16T03:51:05.497Z,39.96
2023-02-16T03:51:38.135Z,40.03
2023-02-16T03:52:10.626Z,40.04
2023-02-16T03:52:42.886Z,40.16
2023-02-16T03:53:19.199Z,40.03
2023-02-16T03:53:51.472Z,39.75
2023-02-16T03:54:23.706Z,40.06
2023-02-16T03:54:58.555Z,39.68
2023-02-16T03:55:30.781Z,40.06
2023-02-16T03:56:03.021Z,40.04
2023-02-16T03:56:37.851Z,39.71
2023-02-16T03:57:10.078Z,40.01
2023-02-16T03:57:42.352Z,39.79
2023-02-16T03:58:19.727Z,39.70
2023-02-16T03:58:51.991Z,39.99
2023-02-16T03:59:27.143Z,39.87
2023-02-16T03:59:59.513Z,39.72
2023-02-16T04:00:34.983Z,39.80
2023-02-16T04:01:07.407Z,39.92
2023-02-16T04:01:39.679Z,40.16
2023-02-16T04:02:14.567Z,40.01
2023-02-16T04:02:47.186Z,39.75
2023-02-16T04:03:19.612Z,39.85
2023-02-16T04:03:54.623Z,40.17
2023-02-16T04:04:27.103Z,39.91
2023-02-16T04:04:59.452Z,40.08
2023-02-16T04:05:34.444Z,39.89
2023-02-16T04:06:07.473Z,39.83
2023-02-16T04:06:39.703Z,39.93
2023-02-16T04:07:14.614Z,39.76
2023-02-16T04:07:46.877Z,39.79
2023-02-16T04:08:19.126Z,40.08
2023-02-16T04:08:54.821Z,39.93
2023-02-16T04:09:27.089Z,39.63
2023-02-16T04:09:59.326Z,40.05
2023-02-16T04:10:31.566Z,40.17
2023-02-16T04:11:27.268Z,40.13
2023-02-16T04:12:14.545Z,39.76
2023-02-16T04:12:47.005Z,40.09
2023-02-16T04:13:19.231Z,40.07
2023-02-16T04:13:51.490Z,39.75
2023-02-16T04:14:26.368Z,40.08
2023-02-16T04:15:01.253Z,39.87
2023-02-16T04:15:33.516Z,39.74
2023-02-16T04:16:06.104Z,39.76
2023-02-16T04:16:40.999Z,39.79
2023-02-16T04:17:13.289Z,39.89
2023-02-16T04:17:46.132Z,40.04
2023-02-16T04:18:20.977Z,40.06
2023-02-16T04:18:53.208Z,39.76
2023-02-16T04:19:25.469Z,39.77
2023-02-16T04:20:00.304Z,39.89
2023-02-16T04:20:34.236Z,39.68
2023-02-16T04:21:06.655Z,40.02
2023-02-16T04:21:43.037Z,40.14
2023-02-16T04:22:15.433Z,40.04
2023-02-16T04:22:48.084Z,39.81
2023-02-16T04:23:22.914Z,40.09
2023-02-16T04:23:55.190Z,40.21
2023-02-16T04:24:27.519Z,39.82
2023-02-16T04:25:02.388Z,39.62
2023-02-16T04:25:34.985Z,39.70
2023-02-16T04:26:07.251Z,39.95
2023-02-16T04:26:42.116Z,39.94
2023-02-16T04:27:14.369Z,39.94
2023-02-16T04:27:47.496Z,39.85
2023-02-16T04:28:23.463Z,39.77
2023-02-16T04:28:55.696Z,39.96
2023-02-16T04:29:31.324Z,39.85
2023-02-16T04:30:07.489Z,39.65
2023-02-16T04:30:39.899Z,39.63
2023-02-16T04:31:12.329Z,39.63
2023-02-16T04:31:47.408Z,39.96
2023-02-16T04:32:19.756Z,40.03
2023-02-16T04:32:52.187Z,39.67
2023-02-16T04:33:27.022Z,40.01
2023-02-16T04:33:59.347Z,39.88
2023-02-16T04:34:31.579Z,39.87
2023-02-16T04:35:06.756Z,39.96
2023-02-16T04:35:39.037Z,39.96
2023-02-16T04:36:11.276Z,40.04
2023-02-16T04:36:46.120Z,40.00
2023-02-16T04:37:18.432Z,39.62
2023-02-16T04:37:50.751Z,39.63
2023-02-16T04:38:26.224Z,39.79
2023-02-16T04:38:58.455Z,39.83
2023-02-16T04:39:30.694Z,40.01
2023-02-16T04:40:06.325Z,39.91
2023-02-16T04:40:38.581Z,40.01
2023-02-16T04:41:10.869Z,39.50
2023-02-16T04:41:45.700Z,39.98
2023-02-16T04:42:17.985Z,39.64
2023-02-16T04:42:52.825Z,39.60
2023-02-16T04:43:25.055Z,39.60
2023-02-16T04:43:57.336Z,39.80
2023-02-16T04:44:34.925Z,40.04
2023-02-16T04:45:08.627Z,39.63
2023-02-16T04:45:40.985Z,40.03
2023-02-16T04:46:15.868Z,39.62
2023-02-16T04:46:48.150Z,39.99
2023-02-16T04:47:20.423Z,39.82
2023-02-16T04:47:55.264Z,40.00
2023-02-16T04:48:27.550Z,39.99
2023-02-16T04:48:59.875Z,39.97
2023-02-16T04:49:34.775Z,39.78
2023-02-16T04:50:08.436Z,39.92
2023-02-16T04:50:40.672Z,39.60
2023-02-16T04:51:15.622Z,39.99
2023-02-16T04:51:47.978Z,39.65
2023-02-16T04:52:20.602Z,39.93
2023-02-16T04:52:55.475Z,39.99
2023-02-16T04:53:27.808Z,39.64
2023-02-16T04:54:00.041Z,39.86
2023-02-16T04:54:35.493Z,39.62
2023-02-16T04:55:10.949Z,39.94
2023-02-16T04:55:49.207Z,40.02
2023-02-16T04:56:21.566Z,39.69
2023-02-16T04:56:53.844Z,39.57
2023-02-16T04:57:28.785Z,39.92
2023-02-16T04:58:01.116Z,39.64
2023-02-16T04:58:33.386Z,40.01
2023-02-16T04:59:08.676Z,39.81
2023-02-16T04:59:43.605Z,39.68
2023-02-16T05:00:16.423Z,39.69
2023-02-16T05:00:51.289Z,39.57
2023-02-16T05:01:25.745Z,39.79
2023-02-16T05:02:00.640Z,39.77
2023-02-16T05:02:33.116Z,39.82
2023-02-16T05:03:05.382Z,39.92
2023-02-16T05:03:40.228Z,39.74
2023-02-16T05:04:12.496Z,40.04
2023-02-16T05:04:44.843Z,39.90
2023-02-16T05:05:19.942Z,39.99
2023-02-16T05:05:52.228Z,39.58
2023-02-16T05:06:24.471Z,39.94
2023-02-16T05:06:59.312Z,40.04
2023-02-16T05:07:31.615Z,39.67
2023-02-16T05:08:07.001Z,39.65
2023-02-16T05:08:39.329Z,39.63
2023-02-16T05:09:11.865Z,39.63
2023-02-16T05:09:46.732Z,39.81
2023-02-16T05:10:19.105Z,39.71
2023-02-16T05:11:13.952Z,39.70
2023-02-16T05:12:01.192Z,39.79
2023-02-16T05:12:48.460Z,39.61
2023-02-16T05:13:38.477Z,39.66
2023-02-16T05:14:36.082Z,39.69
2023-02-16T05:15:10.977Z,39.93
2023-02-16T05:15:45.932Z,39.65
2023-02-16T05:16:20.644Z,40.04
2023-02-16T05:16:54.235Z,40.07
2023-02-16T05:17:29.981Z,39.75
2023-02-16T05:18:02.219Z,40.06
2023-02-16T05:18:34.464Z,39.58
2023-02-16T05:19:09.316Z,39.90
2023-02-16T05:19:42.699Z,39.92
2023-02-16T05:20:17.900Z,39.69
2023-02-16T05:21:16.818Z,40.07
2023-02-16T05:21:49.146Z,39.55
2023-02-16T05:22:21.600Z,39.70
2023-02-16T05:22:56.490Z,39.72
2023-02-16T05:23:28.737Z,40.01
2023-02-16T05:24:02.894Z,39.72
2023-02-16T05:24:37.752Z,39.86
2023-02-16T05:25:10.022Z,39.76
2023-02-16T05:25:42.265Z,39.62
2023-02-16T05:26:17.149Z,39.88
2023-02-16T05:26:49.431Z,39.65
2023-02-16T05:27:24.028Z,39.89
2023-02-16T05:28:00.226Z,40.01
2023-02-16T05:28:32.575Z,39.88
2023-02-16T05:29:05.327Z,39.78
2023-02-16T05:29:40.191Z,40.08
2023-02-16T05:30:16.123Z,39.97
2023-02-16T05:30:48.554Z,39.67
2023-02-16T05:31:24.499Z,39.70
2023-02-16T05:31:57.228Z,40.09
2023-02-16T05:32:32.224Z,40.03
2023-02-16T05:33:04.468Z,39.76
2023-02-16T05:33:36.711Z,39.90
2023-02-16T05:34:11.543Z,39.86
2023-02-16T05:34:45.635Z,39.88
2023-02-16T05:35:20.643Z,39.73
2023-02-16T05:35:52.900Z,39.74
2023-02-16T05:36:25.519Z,39.85
2023-02-16T05:37:00.587Z,39.86
2023-02-16T05:37:32.856Z,39.80
2023-02-16T05:38:05.108Z,39.94
2023-02-16T05:38:40.382Z,40.05
2023-02-16T05:39:12.652Z,40.00
2023-02-16T05:39:47.786Z,39.72
2023-02-16T05:40:20.547Z,39.87
2023-02-16T05:40:52.827Z,39.70
2023-02-16T05:41:25.069Z,39.95
2023-02-16T05:42:00.231Z,39.65
2023-02-16T05:42:32.463Z,40.02
2023-02-16T05:43:04.704Z,40.04
2023-02-16T05:43:37.038Z,39.60
2023-02-16T05:44:12.198Z,39.49
2023-02-16T05:44:44.424Z,39.89
2023-02-16T05:45:19.418Z,39.67
2023-02-16T05:45:54.472Z,39.95
2023-02-16T05:46:28.530Z,39.51
2023-02-16T05:47:00.962Z,39.61
2023-02-16T05:47:35.824Z,39.51
2023-02-16T05:48:08.052Z,39.65
2023-02-16T05:48:40.305Z,39.38
2023-02-16T05:49:16.115Z,39.79
2023-02-16T05:49:48.364Z,39.45
2023-02-16T05:50:20.592Z,39.45
2023-02-16T05:50:57.491Z,39.50
2023-02-16T05:51:30.075Z,39.60
2023-02-16T05:52:02.416Z,39.69
2023-02-16T05:52:37.241Z,39.87
2023-02-16T05:53:09.716Z,39.68
2023-02-16T05:53:42.255Z,39.38
2023-02-16T05:54:19.851Z,39.73
2023-02-16T05:54:52.102Z,39.48
2023-02-16T05:55:24.365Z,39.48
2023-02-16T05:55:59.181Z,39.57
2023-02-16T05:56:31.939Z,39.55
2023-02-16T05:57:07.200Z,39.56
2023-02-16T05:57:39.453Z,39.89
2023-02-16T05:58:11.721Z,39.92
2023-02-16T05:58:46.567Z,39.87
2023-02-16T05:59:19.148Z,39.82
2023-02-16T05:59:51.409Z,39.72
2023-02-16T06:00:33.533Z,39.58
2023-02-16T06:01:06.126Z,39.99
2023-02-16T06:01:40.944Z,39.84
2023-02-16T06:02:15.801Z,39.88
2023-02-16T06:02:48.089Z,39.90
2023-02-16T06:03:20.394Z,39.84
2023-02-16T06:03:55.330Z,39.50
2023-02-16T06:04:28.761Z,39.74
2023-02-16T06:05:03.626Z,39.44
2023-02-16T06:05:35.888Z,39.43
2023-02-16T06:06:09.189Z,39.69
2023-02-16T06:06:44.184Z,39.73
2023-02-16T06:07:16.414Z,39.58
2023-02-16T06:07:48.639Z,39.75
2023-02-16T06:08:23.488Z,39.66
2023-02-16T06:08:55.747Z,39.48
2023-02-16T06:09:31.424Z,39.42
2023-02-16T06:10:04.547Z,39.79
2023-02-16T06:10:36.930Z,39.77
2023-02-16T06:11:33.115Z,39.69
2023-02-16T06:12:05.962Z,39.83
2023-02-16T06:12:41.392Z,39.41
2023-02-16T06:13:14.576Z,39.72
2023-02-16T06:13:50.287Z,39.46
2023-02-16T06:14:25.243Z,39.45
2023-02-16T06:14:57.457Z,39.40
2023-02-16T06:15:32.297Z,39.84
2023-02-16T06:16:07.798Z,39.48
2023-02-16T06:16:41.520Z,39.61
2023-02-16T06:17:16.433Z,39.38
2023-02-16T06:17:48.690Z,39.69
2023-02-16T06:18:21.220Z,39.53
2023-02-16T06:18:53.901Z,39.51
2023-02-16T06:19:28.787Z,39.80
2023-02-16T06:20:01.028Z,39.75
2023-02-16T06:20:33.390Z,39.69
2023-02-16T06:21:08.723Z,39.82
2023-02-16T06:21:41.266Z,39.50
2023-02-16T06:22:13.517Z,39.83
2023-02-16T06:22:48.343Z,39.70
2023-02-16T06:23:20.559Z,39.93
2023-02-16T06:23:53.421Z,39.97
2023-02-16T06:24:28.867Z,39.67
2023-02-16T06:25:01.111Z,39.53
2023-02-16T06:25:33.561Z,39.50
2023-02-16T06:26:08.460Z,39.95
2023-02-16T06:26:41.132Z,39.55
2023-02-16T06:27:15.957Z,39.89
2023-02-16T06:27:48.240Z,39.77
2023-02-16T06:28:20.517Z,39.51
2023-02-16T06:28:55.752Z,39.92
2023-02-16T06:29:27.969Z,39.72
2023-02-16T06:30:03.322Z,39.79
2023-02-16T06:30:38.376Z,39.77
2023-02-16T06:31:10.784Z,39.58
2023-02-16T06:31:45.904Z,39.87
2023-02-16T06:32:18.780Z,39.82
2023-02-16T06:32:51.240Z,39.96
2023-02-16T06:33:26.064Z,39.91
2023-02-16T06:33:58.300Z,39.72
2023-02-16T06:34:33.152Z,39.85
2023-02-16T06:35:05.935Z,39.85
2023-02-16T06:35:38.166Z,39.53
2023-02-16T06:36:13.380Z,39.57
2023-02-16T06:36:45.639Z,39.86
2023-02-16T06:37:17.880Z,39.71
2023-02-16T06:37:52.699Z,39.88
2023-02-16T06:38:26.452Z,39.96
2023-02-16T06:38:58.782Z,39.95
2023-02-16T06:39:33.867Z,39.67
2023-02-16T06:40:10.047Z,39.60
2023-02-16T06:40:42.283Z,39.60
2023-02-16T06:41:31.396Z,39.92
2023-02-16T06:42:04.144Z,39.89
2023-02-16T06:42:39.156Z,39.54
2023-02-16T06:43:11.380Z,39.55
2023-02-16T06:43:46.210Z,39.79
2023-02-16T06:44:18.758Z,39.67
2023-02-16T06:44:51.005Z,39.63
2023-02-16T06:45:25.872Z,39.50
2023-02-16T06:46:00.735Z,39.54
2023-02-16T06:46:33.033Z,39.96
2023-02-16T06:47:07.993Z,39.85
2023-02-16T06:47:40.329Z,39.58
2023-02-16T06:48:12.568Z,39.70
2023-02-16T06:48:47.584Z,39.78
2023-02-16T06:49:20.991Z,39.60
2023-02-16T06:49:53.409Z,39.89
2023-02-16T06:50:28.319Z,39.84
2023-02-16T06:51:00.698Z,39.61
2023-02-16T06:51:35.741Z,40.00
2023-02-16T06:52:08.024Z,39.50
2023-02-16T06:52:40.395Z,39.79
2023-02-16T06:53:15.228Z,39.58
2023-02-16T06:53:47.691Z,39.88
2023-02-16T06:54:22.746Z,39.63
2023-02-16T06:54:54.988Z,39.93
2023-02-16T06:55:27.225Z,39.84
2023-02-16T06:56:02.046Z,39.50
2023-02-16T06:56:35.850Z,39.84
2023-02-16T06:57:09.692Z,39.91
2023-02-16T06:57:44.692Z,39.93
2023-02-16T06:58:16.992Z,39.75
2023-02-16T06:58:52.212Z,40.08
2023-02-16T06:59:24.528Z,39.92
2023-02-16T06:59:56.969Z,39.83
2023-02-16T07:00:32.537Z,39.62
2023-02-16T07:01:07.872Z,39.96
2023-02-16T07:01:44.943Z,39.66
2023-02-16T07:02:19.437Z,39.66
2023-02-16T07:02:51.744Z,39.48
2023-02-16T07:03:26.679Z,39.75
2023-02-16T07:03:59.036Z,39.53
2023-02-16T07:04:33.987Z,39.59
2023-02-16T07:05:06.381Z,39.45
2023-02-16T07:05:39.634Z,39.48
2023-02-16T07:06:14.472Z,39.52
2023-02-16T07:06:46.727Z,39.76
2023-02-16T07:07:21.585Z,39.84
2023-02-16T07:07:53.824Z,39.75
2023-02-16T07:08:28.639Z,39.35
2023-02-16T07:09:00.906Z,39.72
2023-02-16T07:09:33.229Z,39.57
2023-02-16T07:10:09.786Z,39.75
2023-02-16T07:10:49.730Z,39.55
2023-02-16T07:11:25.524Z,39.58
2023-02-16T07:11:58.473Z,39.51
2023-02-16T07:12:30.703Z,39.83
2023-02-16T07:13:05.542Z,39.88
2023-02-16T07:13:37.804Z,39.89
2023-02-16T07:14:10.345Z,39.63
2023-02-16T07:14:45.423Z,39.75
2023-02-16T07:15:17.868Z,39.63
2023-02-16T07:15:52.771Z,39.79
2023-02-16T07:16:27.705Z,39.74
2023-02-16T07:17:04.547Z,39.53
2023-02-16T07:17:36.981Z,39.67
2023-02-16T07:18:09.480Z,39.51
2023-02-16T07:18:44.415Z,39.89
2023-02-16T07:19:16.712Z,40.11
2023-02-16T07:19:51.547Z,40.74
2023-02-16T07:20:23.789Z,41.05
2023-02-16T07:20:56.091Z,40.79
2023-02-16T07:21:30.948Z,41.10
2023-02-16T07:22:03.331Z,40.88
2023-02-16T07:22:35.611Z,41.05
2023-02-16T07:23:10.447Z,40.64
2023-02-16T07:23:43.109Z,40.70
2023-02-16T07:24:15.334Z,40.76
2023-02-16T07:24:50.170Z,41.08
2023-02-16T07:25:22.584Z,41.17
2023-02-16T07:25:57.491Z,40.93
2023-02-16T07:26:29.775Z,40.88
2023-02-16T07:27:05.312Z,40.76
2023-02-16T07:27:37.557Z,41.20
2023-02-16T07:28:09.795Z,41.21
2023-02-16T07:28:44.625Z,41.19
2023-02-16T07:29:16.978Z,41.22
2023-02-16T07:29:49.234Z,40.71
2023-02-16T07:30:24.667Z,40.93
2023-02-16T07:30:57.055Z,41.19
2023-02-16T07:31:34.699Z,40.97
2023-02-16T07:32:07.084Z,41.17
2023-02-16T07:32:39.479Z,40.98
2023-02-16T07:33:14.364Z,41.23
2023-02-16T07:33:46.660Z,41.10
2023-02-16T07:34:22.161Z,40.85
2023-02-16T07:34:54.439Z,40.77
2023-02-16T07:35:26.688Z,41.10
2023-02-16T07:36:01.552Z,40.69
2023-02-16T07:36:34.182Z,40.63
2023-02-16T07:37:09.340Z,40.88
2023-02-16T07:37:41.637Z,40.90
2023-02-16T07:38:16.754Z,41.06
2023-02-16T07:38:49.056Z,40.69
2023-02-16T07:39:23.912Z,40.81
2023-02-16T07:39:56.349Z,40.76
2023-02-16T07:40:28.583Z,40.87
2023-02-16T07:41:04.787Z,40.90
2023-02-16T07:41:38.989Z,40.83
2023-02-16T07:42:15.970Z,40.64
2023-02-16T07:42:52.616Z,40.76
2023-02-16T07:43:24.897Z,40.59